createdAt,value
2018-05-29T00:02:07.956Z,34.07
2018-05-29T00:04:37.087Z,32.20
2018-05-29T00:07:06.214Z,31.87
2018-05-29T00:09:35.669Z,31.63
2018-05-29T00:12:04.784Z,32.07
2018-05-29T00:14:33.906Z,31.67
2018-05-29T00:17:03.037Z,32.40
2018-05-29T00:19:32.156Z,29.50
2018-05-29T00:22:01.265Z,31.00
2018-05-29T00:24:30.409Z,32.60
2018-05-29T00:26:59.801Z,31.70
2018-05-29T00:29:28.937Z,31.60
2018-05-29T00:31:58.339Z,31.00
2018-05-29T00:34:27.457Z,30.80
2018-05-29T00:36:56.580Z,30.00
2018-05-29T00:39:26.032Z,30.90
2018-05-29T00:41:55.157Z,30.17
2018-05-29T00:44:24.395Z,30.10
2018-05-29T00:46:53.837Z,30.67
2018-05-29T00:49:22.963Z,29.87
2018-05-29T00:51:52.097Z,30.00
2018-05-29T00:54:21.229Z,30.77
2018-05-29T00:56:50.431Z,32.17
2018-05-29T00:59:19.555Z,28.70
2018-05-29T01:01:48.993Z,31.27
2018-05-29T01:04:18.121Z,31.40
2018-05-29T01:06:47.273Z,31.70
2018-05-29T01:09:16.689Z,32.07
2018-05-29T01:11:45.860Z,32.83
2018-05-29T01:14:14.936Z,31.13
2018-05-29T01:16:44.415Z,32.07
2018-05-29T01:19:13.530Z,31.63
2018-05-29T01:21:42.642Z,31.77
2018-05-29T01:24:12.044Z,31.97
2018-05-29T01:26:41.236Z,32.70
2018-05-29T01:29:10.345Z,33.13
2018-05-29T01:31:39.797Z,33.13
2018-05-29T01:34:08.921Z,32.27
2018-05-29T01:36:38.041Z,34.27
2018-05-29T01:39:07.181Z,32.30
2018-05-29T01:41:36.307Z,35.70
2018-05-29T01:44:05.429Z,33.23
2018-05-29T01:46:34.888Z,35.57
2018-05-29T01:49:04.014Z,35.43
2018-05-29T01:51:33.135Z,37.33
2018-05-29T01:54:02.580Z,37.00
2018-05-29T01:56:31.695Z,37.23
2018-05-29T01:59:00.899Z,38.80
2018-05-29T02:01:30.373Z,39.50
2018-05-29T02:03:59.492Z,40.83
2018-05-29T02:06:28.607Z,37.63
2018-05-29T02:08:58.156Z,40.27
2018-05-29T02:11:27.282Z,39.53
2018-05-29T02:13:56.491Z,40.87
2018-05-29T02:16:25.871Z,42.47
2018-05-29T02:18:54.994Z,42.97
2018-05-29T02:21:24.111Z,44.53
2018-05-29T02:23:53.242Z,44.43
2018-05-29T02:26:22.362Z,46.83
2018-05-29T02:28:51.485Z,47.63
2018-05-29T02:31:20.941Z,48.93
2018-05-29T02:33:50.067Z,47.23
2018-05-29T02:36:19.195Z,47.87
2018-05-29T02:38:48.784Z,49.70
2018-05-29T02:41:17.910Z,49.17
2018-05-29T02:43:47.038Z,49.87
2018-05-29T02:46:16.481Z,53.00
2018-05-29T02:48:45.604Z,52.37
2018-05-29T02:51:14.729Z,52.20
2018-05-29T02:53:44.133Z,51.70
2018-05-29T02:56:13.268Z,50.80
2018-05-29T02:58:42.391Z,53.10
2018-05-29T03:01:11.851Z,52.07
2018-05-29T03:03:40.975Z,53.20
2018-05-29T03:06:10.092Z,53.00
2018-05-29T03:08:39.513Z,52.93
2018-05-29T03:11:13.198Z,53.20
2018-05-29T03:13:42.329Z,54.87
2018-05-29T03:16:11.459Z,55.00
2018-05-29T03:18:40.589Z,55.70
2018-05-29T03:21:10.009Z,53.47
2018-05-29T03:23:39.234Z,55.30
2018-05-29T03:26:08.361Z,57.20
2018-05-29T03:28:37.501Z,59.23
2018-05-29T03:31:06.621Z,57.00
2018-05-29T03:33:36.661Z,58.30
2018-05-29T03:36:06.114Z,58.70
2018-05-29T03:38:35.346Z,61.47
2018-05-29T03:41:04.457Z,61.00
2018-05-29T03:43:33.593Z,62.40
2018-05-29T03:46:02.713Z,60.27
2018-05-29T03:48:31.926Z,63.57
2018-05-29T03:51:01.494Z,63.10
2018-05-29T03:53:30.618Z,62.80
2018-05-29T03:55:59.766Z,59.83
2018-05-29T03:58:28.904Z,61.80
2018-05-29T04:00:58.116Z,64.07
2018-05-29T04:03:27.245Z,62.13
2018-05-29T04:05:56.681Z,67.30
2018-05-29T04:08:25.913Z,61.97
2018-05-29T04:10:55.039Z,64.10
2018-05-29T04:13:24.546Z,63.43
2018-05-29T04:15:53.731Z,66.47
2018-05-29T04:18:22.803Z,65.90
2018-05-29T04:20:52.272Z,67.47
2018-05-29T04:23:21.395Z,67.30
2018-05-29T04:25:50.529Z,65.00
2018-05-29T04:28:19.653Z,65.90
2018-05-29T04:30:48.891Z,65.17
2018-05-29T04:33:18.012Z,68.57
2018-05-29T04:35:47.457Z,66.83
2018-05-29T04:38:16.585Z,66.60
2018-05-29T04:40:46.497Z,61.80
2018-05-29T04:43:15.966Z,64.37
2018-05-29T04:45:45.116Z,65.03
2018-05-29T04:48:14.220Z,64.63
2018-05-29T04:50:43.759Z,68.47
2018-05-29T04:53:12.879Z,63.33
2018-05-29T04:55:41.999Z,63.83
2018-05-29T04:58:11.131Z,61.53
2018-05-29T05:00:40.241Z,61.67
2018-05-29T05:03:09.362Z,64.13
2018-05-29T05:05:38.764Z,63.67
2018-05-29T05:08:07.906Z,60.47
2018-05-29T05:10:37.046Z,61.00
2018-05-29T05:13:06.177Z,61.20
2018-05-29T05:15:35.316Z,59.47
2018-05-29T05:18:04.462Z,59.43
2018-05-29T05:20:33.970Z,58.73
2018-05-29T05:23:03.049Z,58.23
2018-05-29T05:25:32.173Z,61.30
2018-05-29T05:28:01.309Z,58.57
2018-05-29T05:30:30.437Z,56.60
2018-05-29T05:32:59.557Z,57.90
2018-05-29T05:35:28.690Z,59.77
2018-05-29T05:37:57.798Z,60.17
2018-05-29T05:40:26.906Z,57.33
2018-05-29T05:42:56.394Z,58.50
2018-05-29T05:45:25.529Z,60.60
2018-05-29T05:47:54.669Z,57.60
2018-05-29T05:50:23.795Z,58.60
2018-05-29T05:52:52.929Z,56.80
2018-05-29T05:55:22.056Z,58.00
2018-05-29T05:57:51.602Z,57.07
2018-05-29T06:00:20.729Z,57.73
2018-05-29T06:02:49.850Z,57.83
2018-05-29T06:05:19.066Z,57.87
2018-05-29T06:07:48.282Z,56.07
2018-05-29T06:10:18.273Z,56.43
2018-05-29T06:12:47.784Z,54.83
2018-05-29T06:15:16.889Z,54.03
2018-05-29T06:17:46.019Z,54.50
2018-05-29T06:20:15.477Z,52.80
2018-05-29T06:22:45.037Z,52.80
2018-05-29T06:25:14.163Z,51.00
2018-05-29T06:27:43.314Z,53.53
2018-05-29T06:30:12.425Z,51.27
2018-05-29T06:32:41.611Z,50.67
2018-05-29T06:35:11.089Z,49.70
2018-05-29T06:37:40.223Z,50.20
2018-05-29T06:40:09.350Z,51.40
2018-05-29T06:42:38.497Z,47.80
2018-05-29T06:45:07.682Z,46.77
2018-05-29T06:47:36.736Z,46.03
2018-05-29T06:50:06.185Z,47.17
2018-05-29T06:52:35.318Z,49.07
2018-05-29T06:55:04.439Z,48.23
2018-05-29T06:57:36.838Z,45.70
2018-05-29T07:00:06.050Z,46.07
2018-05-29T07:02:35.221Z,41.93
2018-05-29T07:05:04.370Z,43.80
2018-05-29T07:07:33.498Z,41.70
2018-05-29T07:10:02.645Z,42.03
2018-05-29T07:12:31.785Z,42.40
2018-05-29T07:15:00.901Z,41.30
2018-05-29T07:17:30.436Z,42.87
2018-05-29T07:19:59.639Z,42.57
2018-05-29T07:22:28.701Z,42.10
2018-05-29T07:24:57.830Z,41.00
2018-05-29T07:27:26.978Z,39.70
2018-05-29T07:29:56.112Z,39.97
2018-05-29T07:32:25.246Z,39.73
2018-05-29T07:34:54.375Z,39.90
2018-05-29T07:37:23.504Z,40.97
2018-05-29T07:39:52.654Z,39.60
2018-05-29T07:42:21.785Z,38.90
2018-05-29T07:44:50.905Z,38.73
2018-05-29T07:47:20.469Z,39.13
2018-05-29T07:49:49.606Z,40.20
2018-05-29T07:52:18.726Z,39.60
2018-05-29T07:54:48.253Z,40.07
2018-05-29T07:57:17.389Z,37.03
2018-05-29T07:59:47.473Z,38.93
2018-05-29T08:02:16.969Z,40.00
2018-05-29T08:04:46.197Z,38.57
2018-05-29T08:07:15.323Z,40.90
2018-05-29T08:09:44.493Z,38.70
2018-05-29T08:12:13.612Z,38.60
2018-05-29T08:14:42.734Z,38.77
2018-05-29T08:17:11.874Z,39.60
2018-05-29T08:19:41.073Z,40.40
2018-05-29T08:22:10.205Z,38.60
2018-05-29T08:24:39.399Z,37.77
2018-05-29T08:27:08.469Z,38.27
2018-05-29T08:29:37.583Z,38.00
2018-05-29T08:32:06.730Z,35.50
2018-05-29T08:34:35.862Z,35.37
2018-05-29T08:37:04.985Z,35.30
2018-05-29T08:39:34.565Z,33.73
2018-05-29T08:42:03.681Z,33.70
2018-05-29T08:44:32.793Z,35.53
2018-05-29T08:47:01.926Z,35.37
2018-05-29T08:49:31.045Z,35.73
2018-05-29T08:52:00.157Z,34.40
2018-05-29T08:54:29.601Z,35.00
2018-05-29T08:56:58.719Z,35.03
2018-05-29T08:59:27.837Z,36.33
2018-05-29T09:01:56.967Z,36.07
2018-05-29T09:04:26.114Z,37.07
2018-05-29T09:06:55.228Z,37.30
2018-05-29T09:09:24.682Z,36.17
2018-05-29T09:11:54.838Z,38.03
2018-05-29T09:14:24.179Z,35.80
2018-05-29T09:16:53.301Z,35.67
2018-05-29T09:19:22.414Z,36.60
2018-05-29T09:21:52.049Z,35.03
2018-05-29T09:24:21.165Z,37.10
2018-05-29T09:26:50.283Z,35.90
2018-05-29T09:29:19.740Z,37.67
2018-05-29T09:31:48.862Z,36.20
2018-05-29T09:34:17.990Z,35.87
2018-05-29T09:36:47.513Z,35.80
2018-05-29T09:39:16.741Z,35.13
2018-05-29T09:41:45.871Z,35.93
2018-05-29T09:44:15.385Z,35.87
2018-05-29T09:46:44.510Z,37.53
2018-05-29T09:49:13.639Z,35.17
2018-05-29T09:51:43.216Z,35.97
2018-05-29T09:54:12.337Z,37.80
2018-05-29T09:56:41.462Z,38.00
2018-05-29T09:59:10.611Z,39.33
2018-05-29T10:01:39.726Z,37.57
2018-05-29T10:04:08.845Z,34.77
2018-05-29T10:06:38.362Z,38.60
2018-05-29T10:09:07.595Z,36.30
2018-05-29T10:11:36.710Z,39.93
2018-05-29T10:14:06.090Z,40.27
2018-05-29T10:16:35.246Z,41.07
2018-05-29T10:19:04.727Z,41.50
2018-05-29T10:21:34.266Z,43.00
2018-05-29T10:24:03.388Z,40.00
2018-05-29T10:26:32.520Z,39.53
2018-05-29T10:29:01.914Z,41.47
2018-05-29T10:31:31.037Z,39.97
2018-05-29T10:34:00.151Z,40.10
2018-05-29T10:36:30.866Z,40.07
2018-05-29T10:38:59.977Z,40.27
2018-05-29T10:41:29.595Z,40.93
2018-05-29T10:43:58.702Z,38.90
2018-05-29T10:46:28.423Z,43.27
2018-05-29T10:48:57.953Z,42.37
2018-05-29T10:51:27.064Z,39.20
2018-05-29T10:53:56.188Z,41.10
2018-05-29T10:56:25.648Z,41.90
2018-05-29T10:58:54.765Z,41.13
2018-05-29T11:01:23.893Z,40.70
2018-05-29T11:03:53.385Z,39.03
2018-05-29T11:06:22.615Z,41.97
2018-05-29T11:08:51.745Z,39.17
2018-05-29T11:11:21.279Z,38.37
2018-05-29T11:13:50.410Z,38.00
2018-05-29T11:16:19.529Z,38.30
2018-05-29T11:18:48.681Z,38.27
2018-05-29T11:21:17.821Z,40.77
2018-05-29T11:23:48.190Z,37.90
2018-05-29T11:26:17.319Z,43.20
2018-05-29T11:28:46.433Z,34.13
2018-05-29T11:31:15.583Z,36.30
2018-05-29T11:33:44.734Z,39.20
2018-05-29T11:36:13.861Z,39.90
2018-05-29T11:38:43.301Z,38.50
2018-05-29T11:41:12.416Z,36.97
2018-05-29T11:43:41.546Z,36.80
2018-05-29T11:46:11.060Z,39.30
2018-05-29T11:48:40.230Z,38.10
2018-05-29T11:51:12.834Z,37.57
2018-05-29T11:53:46.408Z,37.33
2018-05-29T11:56:16.334Z,34.80
2018-05-29T11:58:47.471Z,36.20
2018-05-29T12:01:16.625Z,39.60
2018-05-29T12:03:45.736Z,37.60
2018-05-29T12:06:14.929Z,35.90
2018-05-29T12:08:44.341Z,35.93
2018-05-29T12:11:13.455Z,36.07
2018-05-29T12:13:42.593Z,34.47
2018-05-29T12:16:11.996Z,33.90
2018-05-29T12:18:41.126Z,34.00
2018-05-29T12:21:10.243Z,35.50
2018-05-29T12:23:39.738Z,31.03
2018-05-29T12:26:08.880Z,32.80
2018-05-29T12:28:38.097Z,31.97
2018-05-29T12:31:07.328Z,31.90
2018-05-29T12:33:36.437Z,32.63
2018-05-29T12:36:05.556Z,30.50
2018-05-29T12:38:35.054Z,29.80
2018-05-29T12:41:04.180Z,30.73
2018-05-29T12:43:33.293Z,30.90
2018-05-29T12:46:02.426Z,30.43
2018-05-29T12:48:31.549Z,30.03
2018-05-29T12:51:00.670Z,28.27
2018-05-29T12:53:29.797Z,28.50
2018-05-29T12:55:58.912Z,28.70
2018-05-29T12:58:28.036Z,28.60
2018-05-29T13:00:57.167Z,27.90
2018-05-29T13:03:26.347Z,28.20
2018-05-29T13:05:55.461Z,29.67
2018-05-29T13:08:24.989Z,28.63
2018-05-29T13:10:54.027Z,25.37
2018-05-29T13:13:23.137Z,28.67
2018-05-29T13:15:52.529Z,25.87
2018-05-29T13:18:21.654Z,26.83
2018-05-29T13:20:51.097Z,24.17
2018-05-29T13:23:20.229Z,28.33
2018-05-29T13:25:49.365Z,27.97
2018-05-29T13:28:18.486Z,26.10
2018-05-29T13:30:47.661Z,25.30
2018-05-29T13:33:16.812Z,28.80
2018-05-29T13:35:45.922Z,27.27
2018-05-29T13:38:15.487Z,26.63
2018-05-29T13:40:44.711Z,26.97
2018-05-29T13:43:13.872Z,25.70
2018-05-29T13:45:47.245Z,26.13
2018-05-29T13:48:27.606Z,26.40
2018-05-29T13:50:56.860Z,25.87
2018-05-29T13:53:25.993Z,26.03
2018-05-29T13:55:55.134Z,23.93
2018-05-29T13:58:24.277Z,24.53
2018-05-29T14:00:53.469Z,26.03
2018-05-29T14:03:22.625Z,26.73
2018-05-29T14:05:52.105Z,25.60
2018-05-29T14:08:21.241Z,23.43
2018-05-29T14:10:50.395Z,25.10
2018-05-29T14:13:19.922Z,21.57
2018-05-29T14:15:49.081Z,23.07
2018-05-29T14:18:18.438Z,24.10
2018-05-29T14:20:47.612Z,23.37
2018-05-29T14:23:16.745Z,21.17
2018-05-29T14:25:45.881Z,22.70
2018-05-29T14:28:15.288Z,21.33
2018-05-29T14:30:44.449Z,23.33
2018-05-29T14:33:13.567Z,21.13
2018-05-29T14:35:42.741Z,23.90
2018-05-29T14:38:11.865Z,25.20
2018-05-29T14:40:41.001Z,26.30
2018-05-29T14:43:10.473Z,26.13
2018-05-29T14:45:39.655Z,20.80
2018-05-29T14:48:08.825Z,16.00
2018-05-29T14:50:38.014Z,14.67
2018-05-29T14:53:07.125Z,12.87
2018-05-29T14:55:36.264Z,10.50
2018-05-29T14:58:06.742Z,10.90
2018-05-29T15:00:35.885Z,9.67
2018-05-29T15:03:05.022Z,7.90
2018-05-29T15:05:34.580Z,6.00
2018-05-29T15:08:03.737Z,6.53
2018-05-29T15:10:32.853Z,6.83
2018-05-29T15:13:01.967Z,7.23
2018-05-29T15:15:31.104Z,5.70
2018-05-29T15:18:00.250Z,7.13
2018-05-29T15:20:29.706Z,7.30
2018-05-29T15:22:58.895Z,8.20
2018-05-29T15:25:28.017Z,7.40
2018-05-29T15:27:57.666Z,6.83
2018-05-29T15:30:26.791Z,6.80
2018-05-29T15:32:55.903Z,7.20
2018-05-29T15:35:25.042Z,8.63
2018-05-29T15:37:54.177Z,8.50
2018-05-29T15:40:23.305Z,9.30
2018-05-29T15:42:52.440Z,11.63
2018-05-29T15:45:21.561Z,11.63
2018-05-29T15:47:50.730Z,13.67
2018-05-29T15:50:19.905Z,13.47
2018-05-29T15:52:49.019Z,15.50
2018-05-29T15:55:22.071Z,13.53
2018-05-29T15:57:53.685Z,15.27
2018-05-29T16:00:22.963Z,13.30
2018-05-29T16:02:55.801Z,13.47
2018-05-29T16:05:27.815Z,13.00
2018-05-29T16:08:00.928Z,13.50
2018-05-29T16:10:34.704Z,28.80
2018-05-29T16:13:07.623Z,34.63
2018-05-29T16:15:38.443Z,24.33
2018-05-29T16:18:07.563Z,21.30
2018-05-29T16:20:36.683Z,17.40
2018-05-29T16:23:05.858Z,12.63
2018-05-29T16:25:35.001Z,9.80
2018-05-29T16:28:04.118Z,10.93
2018-05-29T16:30:33.589Z,10.60
2018-05-29T16:33:02.732Z,10.53
2018-05-29T16:35:31.857Z,10.00
2018-05-29T16:38:01.458Z,9.60
2018-05-29T16:40:30.620Z,9.77
2018-05-29T16:42:59.729Z,9.10
2018-05-29T16:45:28.886Z,9.17
2018-05-29T16:48:01.170Z,8.83
2018-05-29T16:50:30.306Z,9.60
2018-05-29T16:52:59.448Z,10.80
2018-05-29T16:55:35.119Z,9.17
2018-05-29T16:58:04.288Z,9.83
2018-05-29T17:00:33.599Z,10.50
2018-05-29T17:03:02.730Z,10.90
2018-05-29T17:05:31.881Z,9.67
2018-05-29T17:08:00.999Z,10.17
2018-05-29T17:10:30.437Z,9.10
2018-05-29T17:12:59.590Z,9.63
2018-05-29T17:15:28.840Z,9.30
2018-05-29T17:17:57.955Z,8.67
2018-05-29T17:20:27.299Z,9.40
2018-05-29T17:22:56.495Z,9.63
2018-05-29T17:25:25.622Z,11.77
2018-05-29T17:27:54.892Z,14.00
2018-05-29T17:30:24.014Z,14.73
2018-05-29T17:32:53.146Z,13.30
2018-05-29T17:35:22.302Z,14.90
2018-05-29T17:37:51.416Z,17.03
2018-05-29T17:40:20.894Z,15.50
2018-05-29T17:42:50.494Z,15.67
2018-05-29T17:45:19.613Z,15.37
2018-05-29T17:47:49.253Z,13.47
2018-05-29T17:50:18.412Z,10.53
2018-05-29T17:52:47.627Z,10.03
2018-05-29T17:55:16.809Z,9.57
2018-05-29T17:57:45.961Z,12.40
2018-05-29T18:00:15.101Z,16.27
2018-05-29T18:02:44.282Z,19.03
2018-05-29T18:05:13.421Z,18.67
2018-05-29T18:07:42.541Z,20.40
2018-05-29T18:10:11.753Z,21.00
2018-05-29T18:12:40.882Z,19.17
2018-05-29T18:15:10.009Z,18.33
2018-05-29T18:17:39.145Z,19.97
2018-05-29T18:20:08.262Z,21.23
2018-05-29T18:22:37.375Z,22.60
2018-05-29T18:25:06.817Z,20.23
2018-05-29T18:27:35.940Z,21.90
2018-05-29T18:30:05.084Z,22.20
2018-05-29T18:32:34.321Z,23.33
2018-05-29T18:35:04.091Z,21.30
2018-05-29T18:37:33.214Z,20.87
2018-05-29T18:40:02.429Z,23.83
2018-05-29T18:42:31.623Z,21.97
2018-05-29T18:45:00.754Z,23.27
2018-05-29T18:47:29.890Z,22.40
2018-05-29T18:49:59.079Z,23.27
2018-05-29T18:52:28.168Z,23.73
2018-05-29T18:54:57.358Z,26.63
2018-05-29T18:57:26.481Z,25.57
2018-05-29T18:59:55.653Z,27.40
2018-05-29T19:02:25.268Z,29.40
2018-05-29T19:04:54.385Z,31.00
2018-05-29T19:07:23.592Z,30.20
2018-05-29T19:09:53.094Z,28.43
2018-05-29T19:12:22.235Z,28.90
2018-05-29T19:14:51.395Z,29.00
2018-05-29T19:17:20.873Z,28.77
2018-05-29T19:19:50.013Z,33.20
2018-05-29T19:22:19.129Z,41.90
2018-05-29T19:24:48.783Z,46.90
2018-05-29T19:27:17.922Z,50.30
2018-05-29T19:29:47.058Z,51.97
2018-05-29T19:32:16.193Z,55.57
2018-05-29T19:34:45.484Z,54.47
2018-05-29T19:37:14.641Z,55.23
2018-05-29T19:39:46.108Z,56.10
2018-05-29T19:42:15.227Z,54.07
2018-05-29T19:44:44.361Z,58.10
2018-05-29T19:47:23.606Z,56.17
2018-05-29T19:49:52.717Z,56.77
2018-05-29T19:55:14.213Z,56.07
2018-05-29T19:57:43.341Z,60.37
2018-05-29T20:00:12.493Z,63.57
2018-05-29T20:02:41.625Z,64.57
2018-05-29T20:05:10.774Z,63.40
2018-05-29T20:07:39.888Z,62.77
2018-05-29T20:10:09.061Z,66.53
2018-05-29T20:12:38.585Z,64.93
2018-05-29T20:15:07.733Z,64.67
2018-05-29T20:17:36.851Z,65.20
2018-05-29T20:20:06.464Z,65.10
2018-05-29T20:22:35.573Z,67.30
2018-05-29T20:25:04.696Z,64.70
2018-05-29T20:27:34.218Z,68.17
2018-05-29T20:30:03.347Z,66.17
2018-05-29T20:32:32.459Z,64.73
2018-05-29T20:35:02.028Z,65.60
2018-05-29T20:37:31.146Z,69.00
2018-05-29T20:40:00.269Z,68.40
2018-05-29T20:42:29.414Z,68.70
2018-05-29T20:44:58.592Z,72.87
2018-05-29T20:47:27.702Z,69.07
2018-05-29T20:49:56.850Z,73.27
2018-05-29T20:52:25.986Z,72.10
2018-05-29T20:54:55.101Z,73.50
2018-05-29T20:57:24.247Z,69.73
2018-05-29T20:59:53.413Z,65.83
2018-05-29T21:02:22.532Z,70.97
2018-05-29T21:04:51.664Z,66.97
2018-05-29T21:07:20.793Z,67.47
2018-05-29T21:09:49.912Z,67.93
2018-05-29T21:12:19.457Z,65.83
2018-05-29T21:14:48.597Z,69.33
2018-05-29T21:17:17.755Z,65.97
2018-05-29T21:19:46.966Z,62.10
2018-05-29T21:22:16.289Z,64.70
2018-05-29T21:24:46.039Z,63.93
2018-05-29T21:27:15.176Z,61.67
2018-05-29T21:29:44.293Z,60.20
2018-05-29T21:32:13.419Z,59.70
2018-05-29T21:34:42.846Z,56.10
2018-05-29T21:37:12.014Z,54.70
2018-05-29T21:39:41.161Z,51.90
2018-05-29T21:42:10.682Z,47.93
2018-05-29T21:44:39.798Z,49.37
2018-05-29T21:47:08.931Z,46.80
2018-05-29T21:49:38.448Z,46.33
2018-05-29T21:52:07.674Z,46.67
2018-05-29T21:54:36.794Z,45.00
2018-05-29T21:57:06.340Z,45.07
2018-05-29T21:59:35.473Z,46.80
2018-05-29T22:02:04.601Z,45.60
2018-05-29T22:04:34.145Z,45.70
2018-05-29T22:07:03.265Z,44.03
2018-05-29T22:09:32.397Z,45.07
2018-05-29T22:12:02.037Z,43.57
2018-05-29T22:14:31.268Z,43.87
2018-05-29T22:17:00.397Z,42.10
2018-05-29T22:19:29.969Z,44.37
2018-05-29T22:21:59.092Z,43.00
2018-05-29T22:24:28.215Z,40.80
2018-05-29T22:26:57.350Z,42.90
2018-05-29T22:29:26.461Z,41.27
2018-05-29T22:31:55.595Z,40.77
2018-05-29T22:34:25.109Z,43.43
2018-05-29T22:36:54.242Z,40.03
2018-05-29T22:39:23.357Z,41.67
2018-05-29T22:41:52.487Z,39.50
2018-05-29T22:44:21.613Z,40.63
2018-05-29T22:46:50.751Z,40.30
2018-05-29T22:49:20.232Z,41.60
2018-05-29T22:51:49.370Z,42.00
2018-05-29T22:54:18.528Z,44.93
2018-05-29T22:56:47.654Z,47.60
2018-05-29T22:59:16.782Z,45.03
2018-05-29T23:01:46.016Z,43.33
2018-05-29T23:04:15.469Z,43.90
2018-05-29T23:06:44.586Z,45.13
2018-05-29T23:09:13.713Z,44.40
2018-05-29T23:11:43.181Z,44.53
2018-05-29T23:14:12.308Z,42.20
2018-05-29T23:16:41.436Z,43.00
2018-05-29T23:19:10.880Z,45.90
2018-05-29T23:21:40.105Z,44.43
2018-05-29T23:24:09.222Z,42.90
2018-05-29T23:26:38.621Z,46.60
2018-05-29T23:29:07.747Z,47.30
2018-05-29T23:31:36.876Z,46.53
2018-05-29T23:34:06.361Z,46.90
2018-05-29T23:36:35.491Z,48.33
2018-05-29T23:39:05.345Z,50.00
2018-05-29T23:41:34.974Z,51.30
2018-05-29T23:44:04.093Z,50.03
2018-05-29T23:46:33.307Z,50.97
2018-05-29T23:49:02.761Z,49.07
2018-05-29T23:51:31.880Z,53.47
2018-05-29T23:54:00.999Z,53.80
2018-05-29T23:56:30.487Z,50.60
2018-05-29T23:58:59.624Z,50.50
